Terminal Aerodrome Forecast
Issued by NWS Wakefield, VA

Home | Current Version | Previous Version | Text Only | Print | Product List | Glossary On
Versions: 1 2 3 4 5 6 7 8 9 10 11 12 13
000
FTUS41 KAKQ 212300 RRA
TAFORF
TAF
KORF 212348Z 2200/2224 01007KT P6SM SKC
     FM220700 06003KT P6SM SKC
     FM221500 20010KT P6SM SKC=

USA.gov is the U.S. government's official web portal to all federal, state and local government web resources and services.